Arthur, Canada
Current Conditions -  °F | °C
As of 3:10 AM on Monday 26 Jan 2015 (Local Time) from CYKF Reporting Station
Light Snow Light Snow  
Wind Chill: -6°   Ceiling: 2100
Heat Index:   Visibility: 9mi
Dew Point:   Wind: 8mph
Humidity: 72%   Direction: 40°NE
Pressure: 29.95"   Gusts: NA
Location:  43.83°N, 80.53°W
Report Text: CYKF 260810Z AUTO 04007KT 9SM -SN BKN021 M14/M18 A2995 RMK SLP165
Loading
Personal Weather Stations






























Interactive Weather Map New forecast layout! Learn more

10-Day Weather Forecast

Advertisements
Track Severe Weather on mobile